createdAt,value
2018-02-18T00:00:24.500Z,48.00
2018-02-18T00:02:52.801Z,47.90
2018-02-18T00:05:21.023Z,47.90
2018-02-18T00:07:48.505Z,47.80
2018-02-18T00:10:15.986Z,48.00
2018-02-18T00:12:43.472Z,47.90
2018-02-18T00:15:12.614Z,47.90
2018-02-18T00:17:40.109Z,47.90
2018-02-18T00:20:07.582Z,47.80
2018-02-18T00:22:35.066Z,47.80
2018-02-18T00:25:02.573Z,47.90
2018-02-18T00:27:31.264Z,47.90
2018-02-18T00:29:58.751Z,47.90
2018-02-18T00:32:27.000Z,47.90
2018-02-18T00:34:54.485Z,47.90
2018-02-18T00:37:21.999Z,47.80
2018-02-18T00:39:49.480Z,47.80
2018-02-18T00:42:16.992Z,47.90
2018-02-18T00:44:44.510Z,48.00
2018-02-18T00:47:12.002Z,48.00
2018-02-18T00:49:39.593Z,47.90
2018-02-18T00:52:07.113Z,47.80
2018-02-18T00:54:34.627Z,47.80
2018-02-18T00:57:02.130Z,47.80
2018-02-18T00:59:30.414Z,47.80
2018-02-18T01:01:57.887Z,47.70
2018-02-18T01:04:25.358Z,47.80
2018-02-18T01:06:53.601Z,47.90
2018-02-18T01:09:21.128Z,48.00
2018-02-18T01:11:49.382Z,47.90
2018-02-18T01:14:16.878Z,47.90
2018-02-18T01:16:44.361Z,48.60
2018-02-18T01:19:12.613Z,48.00
2018-02-18T01:21:43.739Z,47.80
2018-02-18T01:24:11.243Z,47.80
2018-02-18T01:26:38.734Z,48.00
2018-02-18T01:29:06.995Z,47.90
2018-02-18T01:31:34.490Z,47.90
2018-02-18T01:34:02.808Z,47.90
2018-02-18T01:36:31.071Z,47.90
2018-02-18T01:38:59.350Z,48.00
2018-02-18T01:41:26.858Z,48.50
2018-02-18T01:43:54.360Z,48.00
2018-02-18T01:46:21.876Z,48.90
2018-02-18T01:48:50.150Z,48.90
2018-02-18T01:51:17.740Z,48.90
2018-02-18T01:53:45.974Z,48.80
2018-02-18T01:56:13.466Z,48.80
2018-02-18T01:58:40.930Z,48.80
2018-02-18T02:01:08.427Z,48.80
2018-02-18T02:03:35.886Z,48.90
2018-02-18T02:06:04.181Z,48.90
2018-02-18T02:08:31.704Z,49.00
2018-02-18T02:10:59.202Z,48.90
2018-02-18T02:13:26.708Z,48.90
2018-02-18T02:15:54.997Z,49.00
2018-02-18T02:18:22.522Z,49.00
2018-02-18T02:20:50.775Z,49.00
2018-02-18T02:23:18.289Z,49.00
2018-02-18T02:25:45.771Z,48.90
2018-02-18T02:28:13.266Z,49.00
2018-02-18T02:30:41.491Z,49.00
2018-02-18T02:33:08.980Z,49.00
2018-02-18T02:35:36.482Z,49.10
2018-02-18T02:38:03.966Z,49.10
2018-02-18T02:40:32.214Z,49.00
2018-02-18T02:42:59.696Z,49.00
2018-02-18T02:45:27.167Z,49.10
2018-02-18T02:47:54.647Z,49.10
2018-02-18T02:50:22.158Z,49.10
2018-02-18T02:52:49.661Z,49.00
2018-02-18T02:55:17.139Z,49.10
2018-02-18T02:57:44.675Z,49.10
2018-02-18T03:00:12.181Z,49.10
2018-02-18T03:02:39.751Z,49.00
2018-02-18T03:05:07.218Z,49.10
2018-02-18T03:07:34.711Z,49.10
2018-02-18T03:10:02.199Z,49.10
2018-02-18T03:12:30.481Z,49.20
2018-02-18T03:14:57.986Z,49.10
2018-02-18T03:17:25.479Z,49.10
2018-02-18T03:19:52.975Z,49.10
2018-02-18T03:22:20.466Z,49.10
2018-02-18T03:24:48.718Z,49.00
2018-02-18T03:27:16.213Z,49.00
2018-02-18T03:29:44.475Z,49.30
2018-02-18T03:32:11.974Z,49.30
2018-02-18T03:34:39.450Z,49.40
2018-02-18T03:37:06.986Z,49.30
2018-02-18T03:39:34.487Z,49.10
2018-02-18T03:42:01.988Z,49.20
2018-02-18T03:44:29.468Z,49.20
2018-02-18T03:46:57.734Z,49.20
2018-02-18T03:49:25.980Z,49.20
2018-02-18T03:51:54.284Z,49.30
2018-02-18T03:54:21.788Z,49.20
2018-02-18T03:56:49.352Z,49.20
2018-02-18T03:59:18.033Z,49.40
2018-02-18T04:01:46.294Z,49.30
2018-02-18T04:04:13.806Z,49.30
2018-02-18T04:06:42.044Z,49.20
2018-02-18T04:09:09.535Z,49.10
2018-02-18T04:11:37.012Z,49.20
2018-02-18T04:14:04.499Z,49.30
2018-02-18T04:16:32.019Z,49.20
2018-02-18T04:18:59.513Z,49.20
2018-02-18T04:21:27.008Z,49.30
2018-02-18T04:23:55.278Z,49.30
2018-02-18T04:26:22.811Z,49.30
2018-02-18T04:28:50.306Z,49.30
2018-02-18T04:31:17.794Z,49.40
2018-02-18T04:33:45.267Z,49.30
2018-02-18T04:36:12.767Z,49.30
2018-02-18T04:38:40.999Z,49.30
2018-02-18T04:41:08.504Z,49.30
2018-02-18T04:43:36.000Z,49.30
2018-02-18T04:46:04.263Z,49.40
2018-02-18T04:48:32.251Z,49.40
2018-02-18T04:51:00.519Z,49.40
2018-02-18T04:53:28.004Z,49.40
2018-02-18T04:55:56.280Z,49.50
2018-02-18T04:58:23.798Z,49.50
2018-02-18T05:00:51.281Z,49.50
2018-02-18T05:03:18.778Z,49.50
2018-02-18T05:05:47.063Z,49.50
2018-02-18T05:08:14.554Z,49.50
2018-02-18T05:10:42.059Z,49.50
2018-02-18T05:13:10.336Z,49.50
2018-02-18T05:15:38.659Z,49.60
2018-02-18T05:18:06.182Z,49.50
2018-02-18T05:20:34.467Z,49.40
2018-02-18T05:23:01.962Z,49.40
2018-02-18T05:25:30.252Z,49.40
2018-02-18T05:27:58.504Z,49.40
2018-02-18T05:30:26.051Z,49.40
2018-02-18T05:32:53.559Z,49.40
2018-02-18T05:35:21.039Z,49.40
2018-02-18T05:37:48.534Z,49.50
2018-02-18T05:40:16.065Z,49.40
2018-02-18T05:42:43.575Z,49.40
2018-02-18T05:45:12.614Z,49.50
2018-02-18T05:47:40.124Z,49.40
2018-02-18T05:50:07.634Z,49.40
2018-02-18T05:52:35.221Z,49.50
2018-02-18T05:55:02.732Z,49.50
2018-02-18T05:57:30.233Z,49.50
2018-02-18T05:59:57.746Z,49.50
2018-02-18T06:02:25.239Z,49.40
2018-02-18T06:04:52.711Z,49.40
2018-02-18T06:07:20.201Z,49.40
2018-02-18T06:09:48.440Z,49.30
2018-02-18T06:12:15.991Z,49.30
2018-02-18T06:14:43.488Z,50.10
2018-02-18T06:17:10.999Z,49.40
2018-02-18T06:19:39.302Z,49.50
2018-02-18T06:22:07.651Z,49.50
2018-02-18T06:24:35.139Z,49.50
2018-02-18T06:27:02.644Z,49.50
2018-02-18T06:29:30.114Z,49.60
2018-02-18T06:31:57.635Z,49.50
2018-02-18T06:34:25.184Z,49.60
2018-02-18T06:36:53.407Z,49.40
2018-02-18T06:39:20.897Z,49.40
2018-02-18T06:41:49.171Z,49.60
2018-02-18T06:44:16.680Z,49.50
2018-02-18T06:46:44.164Z,49.60
2018-02-18T06:49:11.734Z,49.60
2018-02-18T06:51:39.203Z,49.60
2018-02-18T06:54:06.736Z,49.60
2018-02-18T06:56:35.049Z,49.50
2018-02-18T06:59:02.528Z,49.50
2018-02-18T07:01:30.002Z,49.50
2018-02-18T07:03:57.486Z,49.50
2018-02-18T07:06:25.016Z,49.70
2018-02-18T07:08:53.295Z,49.70
2018-02-18T07:11:21.558Z,49.70
2018-02-18T07:13:49.067Z,49.70
2018-02-18T07:16:17.315Z,49.60
2018-02-18T07:18:44.861Z,49.60
2018-02-18T07:21:12.338Z,49.60
2018-02-18T07:23:39.822Z,49.60
2018-02-18T07:26:07.396Z,49.70
2018-02-18T07:28:34.915Z,49.70
2018-02-18T07:31:02.403Z,49.70
2018-02-18T07:33:29.912Z,49.90
2018-02-18T07:35:57.398Z,49.80
2018-02-18T07:38:24.912Z,49.70
2018-02-18T07:40:52.399Z,49.90
2018-02-18T07:43:19.858Z,49.80
2018-02-18T07:45:47.331Z,49.90
2018-02-18T07:48:14.821Z,49.90
2018-02-18T07:50:42.307Z,50.00
2018-02-18T07:53:09.810Z,49.80
2018-02-18T07:55:38.113Z,49.90
2018-02-18T07:58:05.643Z,49.90
2018-02-18T08:00:33.922Z,49.90
2018-02-18T08:03:01.394Z,49.90
2018-02-18T08:05:28.876Z,49.80
2018-02-18T08:07:56.343Z,49.80
2018-02-18T08:10:23.868Z,49.80
2018-02-18T08:12:51.347Z,49.80
2018-02-18T08:15:18.864Z,49.80
2018-02-18T08:17:46.365Z,49.80
2018-02-18T08:20:13.885Z,48.90
2018-02-18T08:22:41.386Z,49.00
2018-02-18T08:25:09.623Z,49.10
2018-02-18T08:30:11.083Z,49.00
2018-02-18T08:32:38.546Z,48.80
2018-02-18T08:35:06.030Z,48.70
2018-02-18T08:37:33.583Z,48.60
2018-02-18T08:40:01.085Z,48.50
2018-02-18T08:42:28.611Z,48.40
2018-02-18T08:44:56.869Z,48.10
2018-02-18T08:47:24.350Z,48.10
2018-02-18T08:49:51.836Z,48.00
2018-02-18T08:52:19.346Z,47.80
2018-02-18T08:54:46.844Z,47.50
2018-02-18T08:57:14.339Z,47.20
2018-02-18T08:59:41.854Z,47.30
2018-02-18T09:02:09.358Z,46.90
2018-02-18T09:04:36.843Z,46.60
2018-02-18T09:07:04.370Z,47.00
2018-02-18T09:09:32.734Z,46.30
2018-02-18T09:12:01.054Z,45.60
2018-02-18T09:14:28.535Z,45.60
2018-02-18T09:16:56.036Z,45.40
2018-02-18T09:19:23.528Z,45.00
2018-02-18T09:21:51.832Z,44.60
2018-02-18T09:24:20.080Z,44.00
2018-02-18T09:26:47.592Z,43.90
2018-02-18T09:29:15.911Z,43.20
2018-02-18T09:31:43.392Z,43.10
2018-02-18T09:34:10.878Z,42.60
2018-02-18T09:36:38.386Z,42.30
2018-02-18T09:39:06.651Z,41.20
2018-02-18T09:41:34.129Z,41.20
2018-02-18T09:44:01.626Z,40.60
2018-02-18T09:46:29.135Z,40.10
2018-02-18T09:48:56.691Z,39.60
2018-02-18T09:51:24.179Z,39.10
2018-02-18T09:53:51.674Z,38.60
2018-02-18T09:56:19.170Z,38.20
2018-02-18T09:58:47.442Z,37.30
2018-02-18T10:01:14.906Z,37.10
2018-02-18T10:03:42.411Z,36.80
2018-02-18T10:06:10.719Z,36.00
2018-02-18T10:08:38.967Z,35.60
2018-02-18T10:11:07.262Z,35.20
2018-02-18T10:13:35.576Z,35.00
2018-02-18T10:16:03.045Z,35.00
2018-02-18T10:18:30.542Z,34.70
2018-02-18T10:20:58.038Z,34.50
2018-02-18T10:23:25.579Z,34.10
2018-02-18T10:25:53.054Z,33.80
2018-02-18T10:28:20.540Z,33.50
2018-02-18T10:30:48.031Z,33.20
2018-02-18T10:33:15.507Z,32.80
2018-02-18T10:35:42.990Z,32.30
2018-02-18T10:38:10.494Z,32.20
2018-02-18T10:40:37.987Z,32.10
2018-02-18T10:43:05.455Z,32.50
2018-02-18T10:45:32.961Z,32.90
2018-02-18T10:48:01.224Z,32.90
2018-02-18T10:50:28.790Z,32.90
2018-02-18T10:52:57.023Z,32.60
2018-02-18T10:55:25.303Z,32.40
2018-02-18T10:57:53.569Z,32.40
2018-02-18T11:00:21.831Z,32.40
2018-02-18T11:02:49.303Z,33.00
2018-02-18T11:05:16.787Z,32.60
2018-02-18T11:07:44.287Z,32.40
2018-02-18T11:10:12.543Z,31.40
2018-02-18T11:12:40.055Z,31.40
2018-02-18T11:15:08.298Z,31.20
2018-02-18T11:17:35.800Z,30.50
2018-02-18T11:20:04.077Z,30.70
2018-02-18T11:22:31.570Z,30.70
2018-02-18T11:24:59.811Z,30.30
2018-02-18T11:27:27.380Z,30.20
2018-02-18T11:29:54.929Z,30.10
2018-02-18T11:32:23.181Z,29.90
2018-02-18T11:34:50.667Z,29.80
2018-02-18T11:37:18.931Z,29.80
2018-02-18T11:39:46.420Z,29.70
2018-02-18T11:42:14.737Z,29.50
2018-02-18T11:44:42.938Z,29.80
2018-02-18T11:47:10.425Z,29.60
2018-02-18T11:49:37.906Z,29.60
2018-02-18T11:52:05.395Z,29.30
2018-02-18T11:54:32.903Z,28.60
2018-02-18T11:57:00.412Z,28.30
2018-02-18T11:59:27.913Z,27.90
2018-02-18T12:01:56.167Z,27.50
2018-02-18T12:04:23.651Z,27.10
2018-02-18T12:06:51.152Z,27.20
2018-02-18T12:09:19.390Z,26.30
2018-02-18T12:11:46.896Z,26.30
2018-02-18T12:14:14.382Z,26.60
2018-02-18T12:16:41.871Z,27.40
2018-02-18T12:19:09.381Z,27.10
2018-02-18T12:21:36.871Z,27.00
2018-02-18T12:24:05.136Z,26.50
2018-02-18T12:26:32.650Z,26.50
2018-02-18T12:29:00.913Z,26.40
2018-02-18T12:31:28.397Z,26.40
2018-02-18T12:33:56.686Z,27.10
2018-02-18T12:36:24.961Z,27.30
2018-02-18T12:38:52.426Z,27.30
2018-02-18T12:41:19.898Z,27.70
2018-02-18T12:43:47.470Z,28.00
2018-02-18T12:46:14.983Z,27.90
2018-02-18T12:48:42.474Z,27.60
2018-02-18T12:51:09.969Z,27.50
2018-02-18T12:53:37.446Z,27.50
2018-02-18T12:56:04.922Z,27.10
2018-02-18T12:58:32.409Z,26.80
2018-02-18T13:01:00.652Z,26.30
2018-02-18T13:03:28.140Z,26.20
2018-02-18T13:05:55.647Z,26.70
2018-02-18T13:08:23.908Z,27.20
2018-02-18T13:10:51.421Z,27.10
2018-02-18T13:13:18.990Z,27.40
2018-02-18T13:15:46.488Z,27.40
2018-02-18T13:18:13.972Z,27.30
2018-02-18T13:20:41.457Z,27.60
2018-02-18T13:23:08.960Z,27.80
2018-02-18T13:25:37.231Z,28.40
2018-02-18T13:28:04.779Z,28.40
2018-02-18T13:30:32.267Z,28.90
2018-02-18T13:32:59.736Z,29.30
2018-02-18T13:35:27.218Z,29.40
2018-02-18T13:37:55.496Z,29.90
2018-02-18T13:40:22.970Z,29.90
2018-02-18T13:42:50.471Z,30.00
2018-02-18T13:45:17.990Z,30.00
2018-02-18T13:47:45.485Z,30.00
2018-02-18T13:50:12.958Z,30.20
2018-02-18T13:52:40.442Z,30.30
2018-02-18T13:55:07.927Z,30.00
2018-02-18T13:57:35.448Z,29.70
2018-02-18T14:00:03.724Z,29.00
2018-02-18T14:02:31.183Z,29.00
2018-02-18T14:04:58.701Z,28.70
2018-02-18T14:07:26.939Z,28.80
2018-02-18T14:09:54.423Z,28.70
2018-02-18T14:12:21.918Z,28.90
2018-02-18T14:14:49.445Z,29.20
2018-02-18T14:17:16.919Z,29.50
2018-02-18T14:19:44.407Z,29.90
2018-02-18T14:22:11.866Z,30.40
2018-02-18T14:24:39.368Z,30.90
2018-02-18T14:27:06.881Z,31.20
2018-02-18T14:29:34.374Z,31.60
2018-02-18T14:32:01.882Z,31.90
2018-02-18T14:34:29.379Z,32.20
2018-02-18T14:36:57.615Z,32.90
2018-02-18T14:39:25.081Z,32.90
2018-02-18T14:45:23.445Z,32.20
2018-02-18T14:48:02.554Z,32.20
2018-02-18T14:50:41.822Z,33.20
2018-02-18T14:53:21.102Z,32.90
2018-02-18T14:56:01.157Z,33.50
2018-02-18T14:58:28.605Z,33.40
2018-02-18T15:00:56.070Z,33.70
2018-02-18T15:03:23.551Z,34.00
2018-02-18T15:05:51.009Z,34.20
2018-02-18T15:08:18.453Z,34.40
2018-02-18T15:10:45.906Z,34.50
2018-02-18T15:13:13.358Z,34.60
2018-02-18T15:15:40.809Z,34.70
2018-02-18T15:18:08.275Z,34.80
2018-02-18T15:20:35.756Z,34.80
2018-02-18T15:23:03.981Z,34.20
2018-02-18T15:25:31.439Z,34.20
2018-02-18T15:27:58.897Z,34.30
2018-02-18T15:30:26.353Z,34.50
2018-02-18T15:32:54.586Z,35.00
2018-02-18T15:35:22.037Z,35.00
2018-02-18T15:37:49.495Z,35.20
2018-02-18T15:40:16.944Z,35.40
2018-02-18T15:42:44.402Z,35.60
2018-02-18T15:45:11.845Z,35.80
2018-02-18T15:47:39.310Z,35.90
2018-02-18T15:50:06.771Z,36.00
2018-02-18T15:52:34.228Z,36.20
2018-02-18T15:55:01.673Z,36.30
2018-02-18T15:57:29.898Z,36.50
2018-02-18T15:59:57.354Z,36.50
2018-02-18T16:02:24.827Z,36.70
2018-02-18T16:04:52.281Z,36.70
2018-02-18T16:07:19.755Z,36.90
2018-02-18T16:09:47.235Z,36.90
2018-02-18T16:12:14.771Z,37.10
2018-02-18T16:14:43.030Z,37.20
2018-02-18T16:17:10.526Z,37.00
2018-02-18T16:19:38.776Z,37.20
2018-02-18T16:22:06.265Z,37.10
2018-02-18T16:24:33.758Z,37.20
2018-02-18T16:27:02.018Z,37.40
2018-02-18T16:29:29.503Z,37.30
2018-02-18T16:31:57.011Z,37.50
2018-02-18T16:34:24.489Z,37.60
2018-02-18T16:36:51.975Z,37.70
2018-02-18T16:39:19.473Z,38.50
2018-02-18T16:41:46.957Z,38.00
2018-02-18T16:44:14.434Z,38.10
2018-02-18T16:46:41.926Z,38.20
2018-02-18T16:49:09.403Z,38.20
2018-02-18T16:51:37.600Z,38.40
2018-02-18T16:54:05.099Z,38.40
2018-02-18T16:56:32.578Z,38.40
2018-02-18T16:59:00.080Z,38.60
2018-02-18T17:01:28.319Z,38.80
2018-02-18T17:03:55.800Z,38.80
2018-02-18T17:06:23.255Z,38.80
2018-02-18T17:08:50.748Z,38.90
2018-02-18T17:11:18.202Z,39.10
2018-02-18T17:13:45.686Z,39.70
2018-02-18T17:16:13.166Z,39.10
2018-02-18T17:18:40.731Z,39.20
2018-02-18T17:21:08.239Z,39.30
2018-02-18T17:23:36.567Z,39.40
2018-02-18T17:26:04.048Z,39.30
2018-02-18T17:28:32.338Z,39.50
2018-02-18T17:30:59.819Z,39.40
2018-02-18T17:33:27.298Z,39.70
2018-02-18T17:35:54.787Z,39.70
2018-02-18T17:38:23.031Z,39.90
2018-02-18T17:40:50.514Z,39.70
2018-02-18T17:43:18.019Z,39.80
2018-02-18T17:45:46.270Z,39.90
2018-02-18T17:48:13.774Z,39.90
2018-02-18T17:50:42.034Z,40.30
2018-02-18T17:53:09.531Z,40.00
2018-02-18T17:55:37.020Z,40.10
2018-02-18T17:58:04.529Z,40.20
2018-02-18T18:00:32.064Z,40.20
2018-02-18T18:02:59.613Z,40.30
2018-02-18T18:05:27.098Z,40.20
2018-02-18T18:07:55.347Z,40.40
2018-02-18T18:10:22.899Z,40.30
2018-02-18T18:12:50.399Z,40.30
2018-02-18T18:15:17.879Z,40.40
2018-02-18T18:17:45.415Z,40.40
2018-02-18T18:20:12.928Z,40.40
2018-02-18T18:22:41.202Z,40.50
2018-02-18T18:25:08.717Z,40.50
2018-02-18T18:27:36.260Z,40.50
2018-02-18T18:30:03.767Z,40.60
2018-02-18T18:32:31.246Z,40.50
2018-02-18T18:34:58.739Z,40.60
2018-02-18T18:37:26.235Z,40.70
2018-02-18T18:39:53.755Z,40.70
2018-02-18T18:42:21.250Z,40.70
2018-02-18T18:44:48.747Z,40.80
2018-02-18T18:47:17.023Z,40.80
2018-02-18T18:49:44.551Z,40.80
2018-02-18T18:52:12.092Z,40.80
2018-02-18T18:54:40.354Z,40.90
2018-02-18T18:57:07.859Z,40.90
2018-02-18T18:59:35.383Z,41.00
2018-02-18T19:02:02.928Z,41.00
2018-02-18T19:04:30.459Z,41.00
2018-02-18T19:06:58.723Z,41.20
2018-02-18T19:09:26.271Z,41.20
2018-02-18T19:11:53.779Z,41.20
2018-02-18T19:14:21.270Z,41.10
2018-02-18T19:16:49.531Z,41.20
2018-02-18T19:19:17.018Z,41.10
2018-02-18T19:21:45.319Z,41.30
2018-02-18T19:24:13.594Z,41.30
2018-02-18T19:26:41.120Z,41.30
2018-02-18T19:29:09.366Z,41.40
2018-02-18T19:31:37.621Z,41.40
2018-02-18T19:34:05.110Z,41.40
2018-02-18T19:36:32.582Z,41.40
2018-02-18T19:39:00.067Z,41.40
2018-02-18T19:41:28.318Z,41.50
2018-02-18T19:43:55.798Z,41.40
2018-02-18T19:46:23.307Z,41.50
2018-02-18T19:48:50.830Z,41.40
2018-02-18T19:51:18.322Z,41.50
2018-02-18T19:53:46.668Z,41.70
2018-02-18T19:56:14.158Z,41.60
2018-02-18T19:58:41.667Z,41.70
2018-02-18T20:01:09.902Z,41.70
2018-02-18T20:03:37.411Z,41.60
2018-02-18T20:06:04.892Z,41.70
2018-02-18T20:08:33.178Z,41.90
2018-02-18T20:11:01.410Z,41.90
2018-02-18T20:13:28.934Z,41.80
2018-02-18T20:15:57.199Z,41.90
2018-02-18T20:18:24.695Z,41.90
2018-02-18T20:20:52.962Z,42.00
2018-02-18T20:23:20.490Z,42.00
2018-02-18T20:25:47.979Z,42.10
2018-02-18T20:28:15.494Z,42.20
2018-02-18T20:30:43.744Z,42.20
2018-02-18T20:33:11.227Z,42.10
2018-02-18T20:35:38.747Z,42.20
2018-02-18T20:38:06.227Z,42.20
2018-02-18T20:40:33.728Z,42.20
2018-02-18T20:43:01.199Z,42.20
2018-02-18T20:45:28.686Z,42.30
2018-02-18T20:47:56.171Z,42.30
2018-02-18T20:50:23.710Z,42.40
2018-02-18T20:52:51.209Z,42.40
2018-02-18T20:55:18.698Z,42.40
2018-02-18T20:57:46.967Z,42.40
2018-02-18T21:00:14.482Z,42.50
2018-02-18T21:02:42.732Z,42.50
2018-02-18T21:05:10.226Z,42.50
2018-02-18T21:07:37.707Z,42.50
2018-02-18T21:10:05.192Z,42.60
2018-02-18T21:12:32.692Z,42.70
2018-02-18T21:15:00.204Z,42.70
2018-02-18T21:17:27.699Z,42.70
2018-02-18T21:19:55.210Z,42.70
2018-02-18T21:22:22.689Z,42.60
2018-02-18T21:24:50.196Z,42.80
2018-02-18T21:27:17.687Z,42.80
2018-02-18T21:29:45.196Z,42.80
2018-02-18T21:32:12.681Z,42.90
2018-02-18T21:34:40.919Z,43.00
2018-02-18T21:37:08.450Z,43.00
2018-02-18T21:39:36.734Z,42.90
2018-02-18T21:42:05.002Z,43.00
2018-02-18T21:44:32.551Z,43.00
2018-02-18T21:47:00.052Z,43.00
2018-02-18T21:49:27.560Z,43.00
2018-02-18T21:51:55.815Z,43.10
2018-02-18T21:54:24.082Z,43.20
2018-02-18T21:56:51.586Z,43.10
2018-02-18T21:59:19.846Z,43.30
2018-02-18T22:01:47.364Z,43.20
2018-02-18T22:04:14.854Z,43.20
2018-02-18T22:06:42.440Z,43.30
2018-02-18T22:09:10.645Z,43.40
2018-02-18T22:11:38.126Z,43.40
2018-02-18T22:14:05.607Z,44.00
2018-02-18T22:16:33.888Z,43.40
2018-02-18T22:19:01.409Z,43.40
2018-02-18T22:21:28.919Z,43.40
2018-02-18T22:23:56.424Z,43.40
2018-02-18T22:26:23.971Z,43.50
2018-02-18T22:28:51.470Z,43.40
2018-02-18T22:31:18.988Z,43.50
2018-02-18T22:33:46.490Z,43.60
2018-02-18T22:36:13.999Z,43.60
2018-02-18T22:38:41.482Z,43.60
2018-02-18T22:41:08.980Z,43.60
2018-02-18T22:43:36.466Z,43.70
2018-02-18T22:46:03.964Z,43.70
2018-02-18T22:48:31.480Z,43.70
2018-02-18T22:50:58.967Z,43.80
2018-02-18T22:53:26.476Z,43.80
2018-02-18T22:55:53.987Z,43.80
2018-02-18T22:58:21.484Z,43.80
2018-02-18T23:00:48.966Z,43.90
2018-02-18T23:03:17.222Z,44.50
2018-02-18T23:05:50.260Z,43.90
2018-02-18T23:08:18.518Z,43.90
2018-02-18T23:10:46.003Z,43.90
2018-02-18T23:13:13.523Z,43.90
2018-02-18T23:15:41.791Z,44.00
2018-02-18T23:18:09.271Z,44.00
2018-02-18T23:20:48.457Z,44.00
2018-02-18T23:23:15.962Z,44.00
2018-02-18T23:25:44.204Z,44.00
2018-02-18T23:28:11.710Z,44.00
2018-02-18T23:30:39.971Z,44.00
2018-02-18T23:33:07.477Z,44.00
2018-02-18T23:35:35.735Z,44.10
2018-02-18T23:38:03.219Z,44.00
2018-02-18T23:40:30.741Z,44.10
2018-02-18T23:42:58.224Z,44.20
2018-02-18T23:45:25.710Z,44.20
2018-02-18T23:47:53.194Z,44.10
2018-02-18T23:50:20.680Z,44.10
2018-02-18T23:52:48.167Z,44.20
2018-02-18T23:55:16.432Z,44.20
2018-02-18T23:57:43.902Z,44.10
